Terminal Aerodrome Forecast
Issued by NWS

Home | Current Version | Previous Version | Text Only | Print | Product List | Glossary On
Versions: 1 2 3 4 5 6 7 8 9 10 11 12 13 14 15 16 17 18
000
FTUS44 KLZK 192340
TAFPBF
TAF
KPBF 192340Z 2000/2024 12006KT P6SM SKC
     FM200900 13005KT 6SM BR BKN050
      TEMPO 2010/2014 5SM BR BKN025
     FM201500 16012KT P6SM BKN025 OVC050
     FM201900 18012KT P6SM BKN050=

USA.gov is the U.S. government's official web portal to all federal, state and local government web resources and services.